CheckWX is a tool to help pilots better visualize weather data.  It is not intended as a substitute for an official pre-flight weather briefing.

06:56:27 UTC

KFTK TAF
Godman AAF Airport
Fort Knox, Kentucky, USA
TAF AMD KFTK 170515Z 1705/1807 VRB06KT 8000 -SHRA VCTS BKN020CB QNH2988INS TEMPO 1705/1706 VRB20G35KT -TSRAGR OVC020CB BECMG 1713/1714 VRB06KT 9999 NSW BKN020 QNH2994INS TEMPO 1721/1723 22015G20KT -TSRA OVC010CB TX28/1720Z TN20/1711Z

Jun-17@
05:00 UTC

Jun-17 @ 05:00 UTC

Jun-17@
13:00 UTC

Jun-17 @ 13:00 UTC

TAF AMD KFTK 170515Z 1705/1807 VRB06KT 8000 -SHRA VCTS BKN020CB QNH2988INS
Wind
  • Variable at 6 KTS
Conditions
Light Rain, Area Thunderstorm
Cloud Levels
  • Broken at 2,000' AGL

Jun-17@
05:00 UTC

Jun-17 @ 05:00 UTC

Jun-17@
06:00 UTC

Jun-17 @ 06:00 UTC

TEMPO 1705/1706 VRB20G35KT -TSRAGR OVC020CB

Expired

Wind
  • Variable at 20 KTS
  • {Gusting to 35 KTS
Conditions
Light Thunderstorm, Light Rain, Light Thunderstorm, Light Hail
Cloud Levels
  • Overcast at 2,000' AGL

Jun-17@
13:00 UTC

Jun-17 @ 13:00 UTC

Jun-18@
07:00 UTC

Jun-18 @ 07:00 UTC

BECMG 1713/1714 VRB06KT 9999 NSW BKN020 QNH2994INS

Becoming

Becoming Conditions expected by Mon, Jun 17, 2019 @ 14:00 UTC

Wind
  • Variable at 6 KTS
Conditions
No significant weather
Cloud Levels
  • Broken at 2,000' AGL

Jun-17@
21:00 UTC

Jun-17 @ 21:00 UTC

Jun-17@
23:00 UTC

Jun-17 @ 23:00 UTC

TEMPO 1721/1723 22015G20KT -TSRA OVC010CB TX28/1720Z TN20/1711Z

Temporary

Temporary Changes expected for less than half the time period

Wind
  • 220° at 15 KTS
  • {Gusting to 20 KTS
Conditions
Light Thunderstorm, Light Rain
Cloud Levels
  • Overcast at 1,000' AGL